sensor_id;sensor_type;location;lat;lon;timestamp;P1;durP1;ratioP1;P2;durP2;ratioP2
64826;SDS011;51265;53.972;12.286;2023-12-22T00:01:28;16.00;;;3.42;;
64826;SDS011;51265;53.972;12.286;2023-12-22T00:03:55;20.02;;;3.60;;
64826;SDS011;51265;53.972;12.286;2023-12-22T00:06:21;15.02;;;3.47;;
64826;SDS011;51265;53.972;12.286;2023-12-22T00:08:47;18.08;;;3.28;;
64826;SDS011;51265;53.972;12.286;2023-12-22T00:11:13;14.88;;;3.20;;
64826;SDS011;51265;53.972;12.286;2023-12-22T00:13:40;17.80;;;3.13;;
64826;SDS011;51265;53.972;12.286;2023-12-22T00:16:07;14.23;;;2.90;;
64826;SDS011;51265;53.972;12.286;2023-12-22T00:18:33;12.75;;;3.05;;
64826;SDS011;51265;53.972;12.286;2023-12-22T00:20:59;14.55;;;3.00;;
64826;SDS011;51265;53.972;12.286;2023-12-22T00:23:25;16.00;;;2.80;;
64826;SDS011;51265;53.972;12.286;2023-12-22T00:25:52;14.00;;;2.78;;
64826;SDS011;51265;53.972;12.286;2023-12-22T00:28:18;15.77;;;4.22;;
64826;SDS011;51265;53.972;12.286;2023-12-22T00:30:44;3.22;;;1.38;;
64826;SDS011;51265;53.972;12.286;2023-12-22T00:33:10;17.52;;;3.80;;
64826;SDS011;51265;53.972;12.286;2023-12-22T00:35:36;12.80;;;2.60;;
64826;SDS011;51265;53.972;12.286;2023-12-22T00:38:03;17.42;;;3.35;;
64826;SDS011;51265;53.972;12.286;2023-12-22T00:40:29;13.40;;;3.03;;
64826;SDS011;51265;53.972;12.286;2023-12-22T00:42:56;13.93;;;2.72;;
64826;SDS011;51265;53.972;12.286;2023-12-22T00:45:22;11.60;;;2.35;;
64826;SDS011;51265;53.972;12.286;2023-12-22T00:47:48;14.27;;;2.38;;
64826;SDS011;51265;53.972;12.286;2023-12-22T00:50:14;14.02;;;2.97;;
64826;SDS011;51265;53.972;12.286;2023-12-22T00:52:41;11.68;;;3.30;;
64826;SDS011;51265;53.972;12.286;2023-12-22T00:55:07;12.05;;;2.75;;
64826;SDS011;51265;53.972;12.286;2023-12-22T00:57:33;12.55;;;2.17;;
64826;SDS011;51265;53.972;12.286;2023-12-22T01:00:00;8.32;;;1.88;;
64826;SDS011;51265;53.972;12.286;2023-12-22T01:02:26;11.05;;;2.05;;
64826;SDS011;51265;53.972;12.286;2023-12-22T01:04:53;12.30;;;2.20;;
64826;SDS011;51265;53.972;12.286;2023-12-22T01:07:19;13.52;;;2.58;;
64826;SDS011;51265;53.972;12.286;2023-12-22T01:09:45;15.30;;;2.40;;
64826;SDS011;51265;53.972;12.286;2023-12-22T01:12:11;9.65;;;1.83;;
64826;SDS011;51265;53.972;12.286;2023-12-22T01:14:37;10.05;;;2.35;;
64826;SDS011;51265;53.972;12.286;2023-12-22T01:17:04;13.43;;;2.67;;
64826;SDS011;51265;53.972;12.286;2023-12-22T01:19:30;14.65;;;2.38;;
64826;SDS011;51265;53.972;12.286;2023-12-22T01:21:56;9.80;;;2.33;;
64826;SDS011;51265;53.972;12.286;2023-12-22T01:24:23;14.45;;;2.10;;
64826;SDS011;51265;53.972;12.286;2023-12-22T01:26:49;13.95;;;2.45;;
64826;SDS011;51265;53.972;12.286;2023-12-22T01:29:15;12.55;;;3.13;;
64826;SDS011;51265;53.972;12.286;2023-12-22T01:31:42;21.38;;;2.80;;
64826;SDS011;51265;53.972;12.286;2023-12-22T01:34:08;14.57;;;2.60;;
64826;SDS011;51265;53.972;12.286;2023-12-22T01:36:34;14.30;;;2.80;;
64826;SDS011;51265;53.972;12.286;2023-12-22T01:39:01;16.38;;;3.15;;
64826;SDS011;51265;53.972;12.286;2023-12-22T01:41:27;11.07;;;3.00;;
64826;SDS011;51265;53.972;12.286;2023-12-22T01:43:53;8.50;;;2.30;;
64826;SDS011;51265;53.972;12.286;2023-12-22T01:46:19;12.25;;;2.08;;
64826;SDS011;51265;53.972;12.286;2023-12-22T01:48:46;10.40;;;2.25;;
64826;SDS011;51265;53.972;12.286;2023-12-22T01:51:12;11.88;;;1.83;;
64826;SDS011;51265;53.972;12.286;2023-12-22T01:53:39;15.85;;;2.53;;
64826;SDS011;51265;53.972;12.286;2023-12-22T01:56:06;16.63;;;3.00;;
64826;SDS011;51265;53.972;12.286;2023-12-22T01:58:34;15.13;;;2.17;;
64826;SDS011;51265;53.972;12.286;2023-12-22T02:01:13;15.32;;;2.63;;
64826;SDS011;51265;53.972;12.286;2023-12-22T02:03:40;9.63;;;1.60;;
64826;SDS011;51265;53.972;12.286;2023-12-22T02:06:07;11.73;;;2.33;;
64826;SDS011;51265;53.972;12.286;2023-12-22T02:08:33;9.85;;;1.88;;
64826;SDS011;51265;53.972;12.286;2023-12-22T02:11:00;11.80;;;2.20;;
64826;SDS011;51265;53.972;12.286;2023-12-22T02:13:27;8.65;;;2.10;;
64826;SDS011;51265;53.972;12.286;2023-12-22T02:16:00;10.68;;;1.90;;
64826;SDS011;51265;53.972;12.286;2023-12-22T02:18:33;14.35;;;2.47;;
64826;SDS011;51265;53.972;12.286;2023-12-22T02:21:04;18.35;;;2.70;;
64826;SDS011;51265;53.972;12.286;2023-12-22T02:23:30;17.48;;;2.15;;
64826;SDS011;51265;53.972;12.286;2023-12-22T02:25:57;17.30;;;3.20;;
64826;SDS011;51265;53.972;12.286;2023-12-22T02:28:32;18.77;;;2.70;;
64826;SDS011;51265;53.972;12.286;2023-12-22T02:31:09;13.07;;;2.30;;
64826;SDS011;51265;53.972;12.286;2023-12-22T02:33:48;13.10;;;2.20;;
64826;SDS011;51265;53.972;12.286;2023-12-22T02:36:18;20.00;;;2.60;;
64826;SDS011;51265;53.972;12.286;2023-12-22T02:38:46;12.82;;;2.38;;
64826;SDS011;51265;53.972;12.286;2023-12-22T02:41:14;12.35;;;2.38;;
64826;SDS011;51265;53.972;12.286;2023-12-22T02:43:41;15.18;;;2.53;;
64826;SDS011;51265;53.972;12.286;2023-12-22T02:46:14;16.50;;;3.78;;
64826;SDS011;51265;53.972;12.286;2023-12-22T02:48:41;21.13;;;3.03;;
64826;SDS011;51265;53.972;12.286;2023-12-22T02:51:07;17.15;;;2.80;;
64826;SDS011;51265;53.972;12.286;2023-12-22T02:53:33;16.80;;;3.30;;
64826;SDS011;51265;53.972;12.286;2023-12-22T02:55:59;12.18;;;2.40;;
64826;SDS011;51265;53.972;12.286;2023-12-22T02:58:25;20.30;;;2.90;;
64826;SDS011;51265;53.972;12.286;2023-12-22T03:00:51;20.33;;;3.33;;
64826;SDS011;51265;53.972;12.286;2023-12-22T03:03:18;12.77;;;2.53;;
64826;SDS011;51265;53.972;12.286;2023-12-22T03:05:44;17.13;;;2.58;;
64826;SDS011;51265;53.972;12.286;2023-12-22T03:08:10;16.05;;;3.42;;
64826;SDS011;51265;53.972;12.286;2023-12-22T03:10:36;14.98;;;2.50;;
64826;SDS011;51265;53.972;12.286;2023-12-22T03:13:03;15.05;;;2.47;;
64826;SDS011;51265;53.972;12.286;2023-12-22T03:15:29;12.93;;;1.85;;
64826;SDS011;51265;53.972;12.286;2023-12-22T03:17:55;14.32;;;2.20;;
64826;SDS011;51265;53.972;12.286;2023-12-22T03:20:22;8.80;;;1.58;;
64826;SDS011;51265;53.972;12.286;2023-12-22T03:22:48;7.40;;;1.55;;
64826;SDS011;51265;53.972;12.286;2023-12-22T03:25:14;7.93;;;1.92;;
64826;SDS011;51265;53.972;12.286;2023-12-22T03:27:40;9.75;;;2.13;;
64826;SDS011;51265;53.972;12.286;2023-12-22T03:30:07;10.38;;;1.60;;
64826;SDS011;51265;53.972;12.286;2023-12-22T03:32:33;11.48;;;2.78;;
64826;SDS011;51265;53.972;12.286;2023-12-22T03:35:00;10.57;;;1.25;;
64826;SDS011;51265;53.972;12.286;2023-12-22T03:37:26;7.75;;;1.48;;
64826;SDS011;51265;53.972;12.286;2023-12-22T03:39:52;8.27;;;1.70;;
64826;SDS011;51265;53.972;12.286;2023-12-22T03:42:18;9.65;;;1.73;;
64826;SDS011;51265;53.972;12.286;2023-12-22T03:44:44;12.38;;;1.83;;
64826;SDS011;51265;53.972;12.286;2023-12-22T03:47:10;12.30;;;2.30;;
64826;SDS011;51265;53.972;12.286;2023-12-22T03:49:37;9.65;;;1.52;;
64826;SDS011;51265;53.972;12.286;2023-12-22T03:52:03;9.98;;;1.77;;
64826;SDS011;51265;53.972;12.286;2023-12-22T03:54:29;17.65;;;2.55;;
64826;SDS011;51265;53.972;12.286;2023-12-22T03:56:55;13.80;;;2.00;;
64826;SDS011;51265;53.972;12.286;2023-12-22T03:59:21;11.55;;;1.92;;
64826;SDS011;51265;53.972;12.286;2023-12-22T04:01:51;13.30;;;2.50;;
64826;SDS011;51265;53.972;12.286;2023-12-22T04:04:21;7.72;;;1.92;;
64826;SDS011;51265;53.972;12.286;2023-12-22T04:06:53;12.82;;;2.08;;
64826;SDS011;51265;53.972;12.286;2023-12-22T04:09:19;14.68;;;2.33;;
64826;SDS011;51265;53.972;12.286;2023-12-22T04:11:46;14.27;;;2.47;;
64826;SDS011;51265;53.972;12.286;2023-12-22T04:14:12;11.50;;;1.67;;
64826;SDS011;51265;53.972;12.286;2023-12-22T04:16:38;10.65;;;1.80;;
64826;SDS011;51265;53.972;12.286;2023-12-22T04:19:04;5.75;;;1.00;;
64826;SDS011;51265;53.972;12.286;2023-12-22T04:21:31;5.25;;;1.25;;
64826;SDS011;51265;53.972;12.286;2023-12-22T04:23:57;5.80;;;1.00;;
64826;SDS011;51265;53.972;12.286;2023-12-22T04:26:23;5.47;;;1.05;;
64826;SDS011;51265;53.972;12.286;2023-12-22T04:28:49;9.38;;;1.73;;
64826;SDS011;51265;53.972;12.286;2023-12-22T04:31:15;3.60;;;1.17;;
64826;SDS011;51265;53.972;12.286;2023-12-22T04:33:41;6.85;;;1.13;;
64826;SDS011;51265;53.972;12.286;2023-12-22T04:36:07;7.80;;;1.45;;
64826;SDS011;51265;53.972;12.286;2023-12-22T04:38:33;5.35;;;1.23;;
64826;SDS011;51265;53.972;12.286;2023-12-22T04:41:00;9.50;;;1.65;;
64826;SDS011;51265;53.972;12.286;2023-12-22T04:43:26;7.57;;;1.63;;
64826;SDS011;51265;53.972;12.286;2023-12-22T04:45:52;8.18;;;1.52;;
64826;SDS011;51265;53.972;12.286;2023-12-22T04:48:18;7.15;;;1.50;;
64826;SDS011;51265;53.972;12.286;2023-12-22T04:50:44;6.35;;;1.17;;
64826;SDS011;51265;53.972;12.286;2023-12-22T04:53:10;8.45;;;1.73;;
64826;SDS011;51265;53.972;12.286;2023-12-22T04:55:36;10.38;;;1.95;;
64826;SDS011;51265;53.972;12.286;2023-12-22T04:58:03;11.40;;;2.10;;
64826;SDS011;51265;53.972;12.286;2023-12-22T05:00:29;6.15;;;1.17;;
64826;SDS011;51265;53.972;12.286;2023-12-22T05:02:55;8.65;;;1.50;;
64826;SDS011;51265;53.972;12.286;2023-12-22T05:05:21;10.25;;;1.73;;
64826;SDS011;51265;53.972;12.286;2023-12-22T05:07:47;12.40;;;1.70;;
64826;SDS011;51265;53.972;12.286;2023-12-22T05:10:13;10.88;;;1.27;;
64826;SDS011;51265;53.972;12.286;2023-12-22T05:12:40;10.60;;;1.50;;
64826;SDS011;51265;53.972;12.286;2023-12-22T05:15:06;9.77;;;1.20;;
64826;SDS011;51265;53.972;12.286;2023-12-22T05:17:32;7.78;;;1.60;;
64826;SDS011;51265;53.972;12.286;2023-12-22T05:19:58;8.73;;;1.77;;
64826;SDS011;51265;53.972;12.286;2023-12-22T05:22:25;7.63;;;1.70;;
64826;SDS011;51265;53.972;12.286;2023-12-22T05:24:51;7.72;;;1.42;;
64826;SDS011;51265;53.972;12.286;2023-12-22T05:27:18;9.52;;;1.15;;
64826;SDS011;51265;53.972;12.286;2023-12-22T05:29:44;7.65;;;1.35;;
64826;SDS011;51265;53.972;12.286;2023-12-22T05:32:10;9.50;;;1.48;;
64826;SDS011;51265;53.972;12.286;2023-12-22T05:34:37;11.55;;;1.90;;
64826;SDS011;51265;53.972;12.286;2023-12-22T05:37:03;7.35;;;1.95;;
64826;SDS011;51265;53.972;12.286;2023-12-22T05:39:29;9.02;;;1.73;;
64826;SDS011;51265;53.972;12.286;2023-12-22T05:41:55;10.63;;;2.28;;
64826;SDS011;51265;53.972;12.286;2023-12-22T05:44:21;8.57;;;2.03;;
64826;SDS011;51265;53.972;12.286;2023-12-22T05:46:50;13.25;;;2.30;;
64826;SDS011;51265;53.972;12.286;2023-12-22T05:49:16;10.35;;;1.80;;
64826;SDS011;51265;53.972;12.286;2023-12-22T05:51:42;10.07;;;1.48;;
64826;SDS011;51265;53.972;12.286;2023-12-22T05:54:08;11.60;;;2.67;;
64826;SDS011;51265;53.972;12.286;2023-12-22T05:56:35;6.20;;;1.45;;
64826;SDS011;51265;53.972;12.286;2023-12-22T05:59:02;13.32;;;2.30;;
64826;SDS011;51265;53.972;12.286;2023-12-22T06:01:29;13.20;;;1.92;;
64826;SDS011;51265;53.972;12.286;2023-12-22T06:03:55;17.42;;;2.80;;
64826;SDS011;51265;53.972;12.286;2023-12-22T06:06:21;8.63;;;1.70;;
64826;SDS011;51265;53.972;12.286;2023-12-22T06:08:48;14.30;;;3.10;;
64826;SDS011;51265;53.972;12.286;2023-12-22T06:11:15;12.85;;;2.20;;
64826;SDS011;51265;53.972;12.286;2023-12-22T06:13:41;12.52;;;2.00;;
64826;SDS011;51265;53.972;12.286;2023-12-22T06:16:11;13.60;;;2.10;;
64826;SDS011;51265;53.972;12.286;2023-12-22T06:18:39;13.15;;;2.33;;
64826;SDS011;51265;53.972;12.286;2023-12-22T06:21:05;17.02;;;2.45;;
64826;SDS011;51265;53.972;12.286;2023-12-22T06:23:31;11.80;;;2.28;;
64826;SDS011;51265;53.972;12.286;2023-12-22T06:25:58;17.27;;;2.70;;
64826;SDS011;51265;53.972;12.286;2023-12-22T06:28:24;14.32;;;2.22;;
64826;SDS011;51265;53.972;12.286;2023-12-22T06:30:51;13.30;;;2.72;;
64826;SDS011;51265;53.972;12.286;2023-12-22T06:33:17;20.30;;;3.42;;
64826;SDS011;51265;53.972;12.286;2023-12-22T06:35:43;10.68;;;2.28;;
64826;SDS011;51265;53.972;12.286;2023-12-22T06:38:10;18.73;;;2.95;;
64826;SDS011;51265;53.972;12.286;2023-12-22T06:40:37;12.90;;;2.53;;
64826;SDS011;51265;53.972;12.286;2023-12-22T06:43:04;16.88;;;2.88;;
64826;SDS011;51265;53.972;12.286;2023-12-22T06:45:30;15.52;;;2.58;;
64826;SDS011;51265;53.972;12.286;2023-12-22T06:47:56;18.10;;;2.72;;
64826;SDS011;51265;53.972;12.286;2023-12-22T06:50:22;14.57;;;2.15;;
64826;SDS011;51265;53.972;12.286;2023-12-22T06:52:48;17.13;;;2.80;;
64826;SDS011;51265;53.972;12.286;2023-12-22T06:55:15;14.52;;;2.60;;
64826;SDS011;51265;53.972;12.286;2023-12-22T06:57:42;12.10;;;2.85;;
64826;SDS011;51265;53.972;12.286;2023-12-22T07:00:09;16.48;;;3.35;;
64826;SDS011;51265;53.972;12.286;2023-12-22T07:02:35;13.38;;;2.67;;
64826;SDS011;51265;53.972;12.286;2023-12-22T07:07:51;11.52;;;3.03;;
64826;SDS011;51265;53.972;12.286;2023-12-22T07:10:17;12.45;;;2.35;;
64826;SDS011;51265;53.972;12.286;2023-12-22T07:12:43;14.07;;;2.22;;
64826;SDS011;51265;53.972;12.286;2023-12-22T07:15:09;10.00;;;2.20;;
64826;SDS011;51265;53.972;12.286;2023-12-22T07:17:36;10.45;;;2.58;;
64826;SDS011;51265;53.972;12.286;2023-12-22T07:20:03;12.20;;;2.40;;
64826;SDS011;51265;53.972;12.286;2023-12-22T07:22:29;10.30;;;2.30;;
64826;SDS011;51265;53.972;12.286;2023-12-22T07:24:56;10.45;;;2.72;;
64826;SDS011;51265;53.972;12.286;2023-12-22T07:27:22;19.75;;;3.00;;
64826;SDS011;51265;53.972;12.286;2023-12-22T07:29:48;12.82;;;2.97;;
64826;SDS011;51265;53.972;12.286;2023-12-22T07:32:14;9.30;;;2.10;;
64826;SDS011;51265;53.972;12.286;2023-12-22T07:34:40;12.98;;;2.63;;
64826;SDS011;51265;53.972;12.286;2023-12-22T07:37:06;11.98;;;2.47;;
64826;SDS011;51265;53.972;12.286;2023-12-22T07:39:32;11.77;;;2.15;;
64826;SDS011;51265;53.972;12.286;2023-12-22T07:41:59;11.30;;;2.13;;
64826;SDS011;51265;53.972;12.286;2023-12-22T07:44:26;16.15;;;2.53;;
64826;SDS011;51265;53.972;12.286;2023-12-22T07:46:58;14.77;;;2.70;;
64826;SDS011;51265;53.972;12.286;2023-12-22T07:49:26;10.50;;;2.50;;
64826;SDS011;51265;53.972;12.286;2023-12-22T07:51:53;12.52;;;2.60;;
64826;SDS011;51265;53.972;12.286;2023-12-22T07:54:19;8.85;;;1.83;;
64826;SDS011;51265;53.972;12.286;2023-12-22T07:56:45;12.10;;;2.10;;
64826;SDS011;51265;53.972;12.286;2023-12-22T07:59:11;17.98;;;2.58;;
64826;SDS011;51265;53.972;12.286;2023-12-22T08:01:37;12.27;;;2.67;;
64826;SDS011;51265;53.972;12.286;2023-12-22T08:04:03;17.75;;;2.58;;
64826;SDS011;51265;53.972;12.286;2023-12-22T08:06:30;11.57;;;2.80;;
64826;SDS011;51265;53.972;12.286;2023-12-22T08:08:56;11.63;;;2.65;;
64826;SDS011;51265;53.972;12.286;2023-12-22T08:11:22;7.20;;;2.00;;
64826;SDS011;51265;53.972;12.286;2023-12-22T08:13:51;12.27;;;2.55;;
64826;SDS011;51265;53.972;12.286;2023-12-22T08:16:17;9.73;;;2.00;;
64826;SDS011;51265;53.972;12.286;2023-12-22T08:18:43;14.57;;;2.42;;
64826;SDS011;51265;53.972;12.286;2023-12-22T08:21:09;12.55;;;2.00;;
64826;SDS011;51265;53.972;12.286;2023-12-22T08:23:35;15.35;;;2.13;;
64826;SDS011;51265;53.972;12.286;2023-12-22T08:26:01;19.15;;;2.50;;
64826;SDS011;51265;53.972;12.286;2023-12-22T08:28:28;12.02;;;1.80;;
64826;SDS011;51265;53.972;12.286;2023-12-22T08:30:54;14.93;;;2.63;;
64826;SDS011;51265;53.972;12.286;2023-12-22T08:33:20;8.52;;;2.10;;
64826;SDS011;51265;53.972;12.286;2023-12-22T08:35:46;11.32;;;2.42;;
64826;SDS011;51265;53.972;12.286;2023-12-22T08:38:12;13.15;;;2.72;;
64826;SDS011;51265;53.972;12.286;2023-12-22T08:40:39;14.38;;;3.05;;
64826;SDS011;51265;53.972;12.286;2023-12-22T08:43:05;17.58;;;3.50;;
64826;SDS011;51265;53.972;12.286;2023-12-22T08:45:32;15.48;;;3.03;;
64826;SDS011;51265;53.972;12.286;2023-12-22T08:47:58;16.02;;;3.50;;
64826;SDS011;51265;53.972;12.286;2023-12-22T08:50:24;15.10;;;3.10;;
64826;SDS011;51265;53.972;12.286;2023-12-22T08:52:51;13.10;;;2.20;;
64826;SDS011;51265;53.972;12.286;2023-12-22T08:55:18;11.27;;;2.50;;
64826;SDS011;51265;53.972;12.286;2023-12-22T08:57:44;13.63;;;2.80;;
64826;SDS011;51265;53.972;12.286;2023-12-22T09:00:10;14.15;;;2.38;;
64826;SDS011;51265;53.972;12.286;2023-12-22T09:02:37;17.88;;;2.90;;
64826;SDS011;51265;53.972;12.286;2023-12-22T09:05:03;15.75;;;2.63;;
64826;SDS011;51265;53.972;12.286;2023-12-22T09:07:31;17.63;;;2.38;;
64826;SDS011;51265;53.972;12.286;2023-12-22T09:09:57;17.10;;;2.92;;
64826;SDS011;51265;53.972;12.286;2023-12-22T09:12:23;12.95;;;2.95;;
64826;SDS011;51265;53.972;12.286;2023-12-22T09:14:50;9.80;;;2.55;;
64826;SDS011;51265;53.972;12.286;2023-12-22T09:17:16;11.38;;;2.05;;
64826;SDS011;51265;53.972;12.286;2023-12-22T09:19:43;16.35;;;2.70;;
64826;SDS011;51265;53.972;12.286;2023-12-22T09:22:09;13.60;;;2.80;;
64826;SDS011;51265;53.972;12.286;2023-12-22T09:24:35;17.83;;;2.45;;
64826;SDS011;51265;53.972;12.286;2023-12-22T09:27:01;15.60;;;2.47;;
64826;SDS011;51265;53.972;12.286;2023-12-22T09:29:29;9.70;;;2.05;;
64826;SDS011;51265;53.972;12.286;2023-12-22T09:31:55;15.52;;;2.17;;
64826;SDS011;51265;53.972;12.286;2023-12-22T09:34:22;16.27;;;2.75;;
64826;SDS011;51265;53.972;12.286;2023-12-22T09:36:48;12.90;;;1.90;;
64826;SDS011;51265;53.972;12.286;2023-12-22T09:39:14;14.07;;;2.10;;
64826;SDS011;51265;53.972;12.286;2023-12-22T09:41:43;11.85;;;2.30;;
64826;SDS011;51265;53.972;12.286;2023-12-22T09:44:19;8.82;;;2.38;;
64826;SDS011;51265;53.972;12.286;2023-12-22T09:46:49;10.32;;;2.20;;
64826;SDS011;51265;53.972;12.286;2023-12-22T09:49:19;13.73;;;2.50;;
64826;SDS011;51265;53.972;12.286;2023-12-22T09:51:47;9.65;;;2.58;;
64826;SDS011;51265;53.972;12.286;2023-12-22T09:54:15;15.05;;;2.58;;
64826;SDS011;51265;53.972;12.286;2023-12-22T09:56:42;15.73;;;3.00;;
64826;SDS011;51265;53.972;12.286;2023-12-22T09:59:13;14.90;;;2.70;;
64826;SDS011;51265;53.972;12.286;2023-12-22T10:01:43;19.23;;;3.08;;
64826;SDS011;51265;53.972;12.286;2023-12-22T10:04:13;15.05;;;2.97;;
64826;SDS011;51265;53.972;12.286;2023-12-22T10:06:43;13.75;;;2.80;;
64826;SDS011;51265;53.972;12.286;2023-12-22T10:09:13;17.65;;;3.22;;
64826;SDS011;51265;53.972;12.286;2023-12-22T10:11:40;11.77;;;2.30;;
64826;SDS011;51265;53.972;12.286;2023-12-22T10:14:09;18.92;;;3.20;;
64826;SDS011;51265;53.972;12.286;2023-12-22T10:16:36;16.60;;;2.53;;
64826;SDS011;51265;53.972;12.286;2023-12-22T10:19:03;14.43;;;2.80;;
64826;SDS011;51265;53.972;12.286;2023-12-22T10:21:30;12.07;;;2.92;;
64826;SDS011;51265;53.972;12.286;2023-12-22T10:23:57;15.00;;;3.10;;
64826;SDS011;51265;53.972;12.286;2023-12-22T10:26:23;18.38;;;3.55;;
64826;SDS011;51265;53.972;12.286;2023-12-22T10:28:49;24.08;;;3.15;;
64826;SDS011;51265;53.972;12.286;2023-12-22T10:31:17;8.48;;;2.20;;
64826;SDS011;51265;53.972;12.286;2023-12-22T10:33:44;15.55;;;3.00;;
64826;SDS011;51265;53.972;12.286;2023-12-22T10:36:10;9.90;;;2.42;;
64826;SDS011;51265;53.972;12.286;2023-12-22T10:38:36;12.23;;;2.25;;
64826;SDS011;51265;53.972;12.286;2023-12-22T10:41:03;12.60;;;2.40;;
64826;SDS011;51265;53.972;12.286;2023-12-22T10:43:36;8.77;;;2.20;;
64826;SDS011;51265;53.972;12.286;2023-12-22T10:46:04;9.38;;;2.42;;
64826;SDS011;51265;53.972;12.286;2023-12-22T10:48:30;11.25;;;2.38;;
64826;SDS011;51265;53.972;12.286;2023-12-22T10:50:56;11.02;;;2.25;;
64826;SDS011;51265;53.972;12.286;2023-12-22T10:53:23;14.90;;;2.53;;
64826;SDS011;51265;53.972;12.286;2023-12-22T10:55:49;11.75;;;2.25;;
64826;SDS011;51265;53.972;12.286;2023-12-22T10:58:17;12.30;;;2.90;;
64826;SDS011;51265;53.972;12.286;2023-12-22T11:00:47;15.85;;;3.05;;
64826;SDS011;51265;53.972;12.286;2023-12-22T11:03:17;12.57;;;2.03;;
64826;SDS011;51265;53.972;12.286;2023-12-22T11:05:46;18.95;;;3.10;;
64826;SDS011;51265;53.972;12.286;2023-12-22T11:08:14;11.55;;;1.80;;
64826;SDS011;51265;53.972;12.286;2023-12-22T11:10:42;10.20;;;2.25;;
64826;SDS011;51265;53.972;12.286;2023-12-22T11:13:10;12.27;;;3.05;;
64826;SDS011;51265;53.972;12.286;2023-12-22T11:15:38;10.77;;;2.38;;
64826;SDS011;51265;53.972;12.286;2023-12-22T11:18:06;11.45;;;2.15;;
64826;SDS011;51265;53.972;12.286;2023-12-22T11:20:34;12.00;;;2.83;;
64826;SDS011;51265;53.972;12.286;2023-12-22T11:23:01;17.52;;;3.72;;
64826;SDS011;51265;53.972;12.286;2023-12-22T11:25:28;16.63;;;2.70;;
64826;SDS011;51265;53.972;12.286;2023-12-22T11:27:56;12.32;;;2.65;;
64826;SDS011;51265;53.972;12.286;2023-12-22T11:30:24;16.27;;;3.10;;
64826;SDS011;51265;53.972;12.286;2023-12-22T11:32:51;13.10;;;2.13;;
64826;SDS011;51265;53.972;12.286;2023-12-22T11:35:19;13.18;;;2.33;;
64826;SDS011;51265;53.972;12.286;2023-12-22T11:37:47;11.85;;;2.28;;
64826;SDS011;51265;53.972;12.286;2023-12-22T11:40:15;10.82;;;2.58;;
64826;SDS011;51265;53.972;12.286;2023-12-22T11:42:45;14.25;;;2.78;;
64826;SDS011;51265;53.972;12.286;2023-12-22T11:45:17;11.80;;;2.38;;
64826;SDS011;51265;53.972;12.286;2023-12-22T11:47:43;11.15;;;1.98;;
64826;SDS011;51265;53.972;12.286;2023-12-22T11:50:10;10.77;;;2.08;;
64826;SDS011;51265;53.972;12.286;2023-12-22T11:52:37;8.73;;;1.83;;
64826;SDS011;51265;53.972;12.286;2023-12-22T11:55:05;11.25;;;2.08;;
64826;SDS011;51265;53.972;12.286;2023-12-22T11:57:36;8.80;;;1.92;;
64826;SDS011;51265;53.972;12.286;2023-12-22T12:03:02;15.68;;;2.05;;
64826;SDS011;51265;53.972;12.286;2023-12-22T12:05:32;13.40;;;2.60;;
64826;SDS011;51265;53.972;12.286;2023-12-22T12:08:06;10.85;;;2.10;;
64826;SDS011;51265;53.972;12.286;2023-12-22T12:13:05;11.30;;;2.30;;
64826;SDS011;51265;53.972;12.286;2023-12-22T12:15:37;11.68;;;2.40;;
64826;SDS011;51265;53.972;12.286;2023-12-22T12:18:04;9.57;;;2.03;;
64826;SDS011;51265;53.972;12.286;2023-12-22T12:20:32;12.18;;;2.28;;
64826;SDS011;51265;53.972;12.286;2023-12-22T12:22:58;16.45;;;2.80;;
64826;SDS011;51265;53.972;12.286;2023-12-22T12:25:31;10.55;;;2.30;;
64826;SDS011;51265;53.972;12.286;2023-12-22T12:28:05;12.75;;;2.63;;
64826;SDS011;51265;53.972;12.286;2023-12-22T12:30:33;9.02;;;1.88;;
64826;SDS011;51265;53.972;12.286;2023-12-22T12:33:07;13.15;;;2.25;;
64826;SDS011;51265;53.972;12.286;2023-12-22T12:35:34;14.18;;;2.13;;
64826;SDS011;51265;53.972;12.286;2023-12-22T12:38:02;10.02;;;1.92;;
64826;SDS011;51265;53.972;12.286;2023-12-22T12:40:29;10.20;;;1.90;;
64826;SDS011;51265;53.972;12.286;2023-12-22T12:42:56;8.02;;;1.35;;
64826;SDS011;51265;53.972;12.286;2023-12-22T12:45:23;10.00;;;2.50;;
64826;SDS011;51265;53.972;12.286;2023-12-22T12:47:59;13.43;;;2.15;;
64826;SDS011;51265;53.972;12.286;2023-12-22T12:50:27;13.40;;;2.40;;
64826;SDS011;51265;53.972;12.286;2023-12-22T12:52:57;13.52;;;2.33;;
64826;SDS011;51265;53.972;12.286;2023-12-22T12:55:24;7.75;;;1.75;;
64826;SDS011;51265;53.972;12.286;2023-12-22T12:57:54;14.13;;;2.22;;
64826;SDS011;51265;53.972;12.286;2023-12-22T13:00:28;9.07;;;1.45;;
64826;SDS011;51265;53.972;12.286;2023-12-22T13:02:56;12.23;;;1.80;;
64826;SDS011;51265;53.972;12.286;2023-12-22T13:05:25;9.77;;;1.77;;
64826;SDS011;51265;53.972;12.286;2023-12-22T13:07:51;6.88;;;1.50;;
64826;SDS011;51265;53.972;12.286;2023-12-22T13:12:50;13.00;;;1.83;;
64826;SDS011;51265;53.972;12.286;2023-12-22T13:15:20;11.50;;;1.95;;
64826;SDS011;51265;53.972;12.286;2023-12-22T13:17:47;10.38;;;1.63;;
64826;SDS011;51265;53.972;12.286;2023-12-22T13:20:14;9.95;;;1.67;;
64826;SDS011;51265;53.972;12.286;2023-12-22T13:22:40;13.40;;;2.25;;
64826;SDS011;51265;53.972;12.286;2023-12-22T13:25:06;11.50;;;1.50;;
64826;SDS011;51265;53.972;12.286;2023-12-22T13:27:43;11.02;;;1.55;;
64826;SDS011;51265;53.972;12.286;2023-12-22T13:30:34;8.00;;;1.37;;
64826;SDS011;51265;53.972;12.286;2023-12-22T13:33:07;6.80;;;1.35;;
64826;SDS011;51265;53.972;12.286;2023-12-22T13:35:33;5.72;;;1.02;;
64826;SDS011;51265;53.972;12.286;2023-12-22T13:38:06;13.15;;;1.95;;
64826;SDS011;51265;53.972;12.286;2023-12-22T13:40:33;10.23;;;1.38;;
64826;SDS011;51265;53.972;12.286;2023-12-22T13:43:00;7.40;;;1.20;;
64826;SDS011;51265;53.972;12.286;2023-12-22T13:45:30;7.15;;;1.38;;
64826;SDS011;51265;53.972;12.286;2023-12-22T13:47:57;6.53;;;1.50;;
64826;SDS011;51265;53.972;12.286;2023-12-22T13:50:23;6.20;;;1.60;;
64826;SDS011;51265;53.972;12.286;2023-12-22T13:52:50;7.38;;;1.13;;
64826;SDS011;51265;53.972;12.286;2023-12-22T13:55:17;8.85;;;1.63;;
64826;SDS011;51265;53.972;12.286;2023-12-22T13:57:45;7.28;;;1.15;;
64826;SDS011;51265;53.972;12.286;2023-12-22T14:02:48;10.00;;;1.40;;
64826;SDS011;51265;53.972;12.286;2023-12-22T14:05:15;12.52;;;1.75;;
64826;SDS011;51265;53.972;12.286;2023-12-22T14:07:45;6.53;;;1.15;;
64826;SDS011;51265;53.972;12.286;2023-12-22T14:10:12;4.70;;;1.35;;
64826;SDS011;51265;53.972;12.286;2023-12-22T14:12:39;9.82;;;1.50;;
64826;SDS011;51265;53.972;12.286;2023-12-22T14:15:09;5.15;;;1.00;;
64826;SDS011;51265;53.972;12.286;2023-12-22T14:17:37;3.10;;;1.23;;
64826;SDS011;51265;53.972;12.286;2023-12-22T14:20:03;8.73;;;1.60;;
64826;SDS011;51265;53.972;12.286;2023-12-22T14:22:35;9.18;;;1.50;;
64826;SDS011;51265;53.972;12.286;2023-12-22T14:25:03;9.18;;;1.75;;
64826;SDS011;51265;53.972;12.286;2023-12-22T14:27:29;7.55;;;1.35;;
64826;SDS011;51265;53.972;12.286;2023-12-22T14:29:55;8.45;;;1.40;;
64826;SDS011;51265;53.972;12.286;2023-12-22T14:32:22;7.05;;;1.75;;
64826;SDS011;51265;53.972;12.286;2023-12-22T14:34:48;9.00;;;1.52;;
64826;SDS011;51265;53.972;12.286;2023-12-22T14:37:15;6.72;;;1.33;;
64826;SDS011;51265;53.972;12.286;2023-12-22T14:39:44;8.85;;;1.10;;